Main page
METAR-TAF:

METAR-TAF

Airports :

Mazar-i-Sharif, Afghanistan

Mazar-e Sharif International Airport

latitude: 36-42N, longitude: 067-12E, elevation: 378 m

Current weather observation

The report was made 29 minutes ago, at 09:50 UTC
Wind 6 kt from the North
Temperature 34°C
Humidity 12%
Pressure 1008 hPa
Visibility 10 km or more
Clear sky

METAR: OAMS 210950Z 36006KT 9999 SKC 34/01 Q1008 BLU+BLU+

Time: 14:49 (10:19 UTC)

Forecast

The report was made 5 hours and 14 minutes ago, at 05:05 UTC
Forecast valid from 21 at 06 UTC to 22 at 06 UTC
Wind 9 kt from the North/Northwest
Visibility 10 km or more
Clear sky
Becoming
from 21 at 13 UTC to 21 at 15 UTC
Wind 10 kt from the South/Southwest
Visibility 10 km or more
Clear sky

TAF: OAMS 210505Z 2106/2206 33009KT 9999 NSW SKC BECMG 2113/2115 20010KT 9999 NSW SKC

Weather observations and forecasts of more than 4000 airports (METAR and TAF reports).

The available stations are represented by yellow and red dots on the map.

Hover mouse over dot to see the name of the station.

Then click to see weather observations and forecasts.

To change the map : click on the green buttons with a black cross to zoom in, on the green button with a dash to zoom out, or on the green arrows for adjacent maps.


METAR-TAF: